Time;durP1;ratioP1;P1;durP2;ratioP2;P2;SDS_P1;SDS_P2;PMS_P1;PMS_P2;Temp;Humidity;BMP_temperature;BMP_pressure;BME280_temperature;BME280_humidity;BME280_pressure;Samples;Min_cycle;Max_cycle;Signal;HPM_P1;HPM_P2
2022/01/21 00:02:25;;;;;;;4.93;2.60;;;;;;;;;;5075662;28;20633;-64
2022/01/21 00:04:53;;;;;;;5.88;2.63;;;;;;;;;;5074511;28;20437;-65
2022/01/21 00:07:19;;;;;;;6.00;2.40;;;;;;;;;;5075458;28;20172;-64
2022/01/21 00:09:47;;;;;;;4.90;2.70;;;;;;;;;;5075360;28;20976;-64
2022/01/21 00:12:13;;;;;;;8.95;2.55;;;;;;;;;;5075199;28;20473;-64
2022/01/21 00:14:40;;;;;;;3.53;2.33;;;;;;;;;;5075337;28;20535;-65
2022/01/21 00:17:06;;;;;;;4.30;2.25;;;;;;;;;;5075301;28;20281;-64
2022/01/21 00:19:38;;;;;;;6.72;2.85;;;;;;;;;;5075054;28;20581;-64
2022/01/21 00:30:20;;;;;;;5.75;2.90;;;;;;;;;;5074860;28;20182;-64
2022/01/21 00:32:47;;;;;;;6.88;3.00;;;;;;;;;;5075047;28;20271;-65
2022/01/21 00:35:13;;;;;;;6.38;3.13;;;;;;;;;;5074946;28;20175;-64
2022/01/21 00:37:40;;;;;;;3.92;2.63;;;;;;;;;;5074829;28;20167;-66
2022/01/21 00:40:07;;;;;;;3.88;2.33;;;;;;;;;;5074647;28;20578;-65
2022/01/21 00:45:11;;;;;;;7.45;2.80;;;;;;;;;;5074854;28;20593;-66
2022/01/21 00:47:37;;;;;;;6.63;3.10;;;;;;;;;;5074754;28;20192;-64
2022/01/21 00:50:04;;;;;;;4.45;2.55;;;;;;;;;;5056593;28;20633;-64
2022/01/21 00:52:29;;;;;;;9.95;2.80;;;;;;;;;;5074477;28;20238;-64
2022/01/21 00:54:55;;;;;;;4.50;2.30;;;;;;;;;;5074571;28;20218;-65
2022/01/21 00:57:21;;;;;;;7.32;2.28;;;;;;;;;;5074404;28;20417;-64
2022/01/21 00:59:48;;;;;;;7.53;2.20;;;;;;;;;;5074057;28;20605;-64
2022/01/21 01:02:14;;;;;;;7.68;1.85;;;;;;;;;;5056478;28;20427;-65
2022/01/21 01:04:40;;;;;;;8.55;2.85;;;;;;;;;;5074489;28;20238;-63
2022/01/21 01:07:06;;;;;;;6.00;2.80;;;;;;;;;;5074215;28;20174;-64
2022/01/21 01:09:34;;;;;;;3.80;2.30;;;;;;;;;;5074183;28;20172;-64
2022/01/21 01:19:58;;;;;;;5.53;1.85;;;;;;;;;;5074270;28;20710;-64
2022/01/21 01:22:52;;;;;;;7.47;2.67;;;;;;;;;;5056146;28;20177;-64
2022/01/21 01:28:04;;;;;;;7.07;2.03;;;;;;;;;;5074200;28;20179;-64
2022/01/21 01:30:31;;;;;;;5.93;3.00;;;;;;;;;;5073678;28;20168;-64
2022/01/21 01:32:59;;;;;;;5.90;2.70;;;;;;;;;;5073786;28;20320;-64
2022/01/21 01:35:26;;;;;;;3.30;2.53;;;;;;;;;;5073783;28;20263;-64
2022/01/21 01:50:51;;;;;;;5.10;2.00;;;;;;;;;;5073399;28;20721;-64
2022/01/21 01:53:18;;;;;;;5.35;2.25;;;;;;;;;;5073452;28;20182;-64
2022/01/21 01:55:45;;;;;;;3.60;2.33;;;;;;;;;;5073481;28;20155;-63
2022/01/21 01:58:14;;;;;;;3.38;2.30;;;;;;;;;;5073439;28;20170;-64
2022/01/21 02:00:40;;;;;;;5.00;2.70;;;;;;;;;;5071272;28;20240;-64
2022/01/21 02:03:06;;;;;;;7.37;3.40;;;;;;;;;;5093534;28;20593;-64
2022/01/21 02:05:32;;;;;;;5.88;2.45;;;;;;;;;;5093619;28;20404;-64
2022/01/21 02:07:58;;;;;;;5.85;2.88;;;;;;;;;;5093516;28;20258;-64
2022/01/21 02:10:24;;;;;;;5.80;3.00;;;;;;;;;;5093323;28;20209;-64
2022/01/21 02:12:51;;;;;;;3.15;2.30;;;;;;;;;;5093419;28;20421;-64
2022/01/21 02:15:17;;;;;;;8.52;4.50;;;;;;;;;;5093355;28;20294;-63
2022/01/21 02:22:54;;;;;;;7.82;2.67;;;;;;;;;;5093628;28;20931;-64
2022/01/21 02:25:20;;;;;;;8.93;2.60;;;;;;;;;;5092005;28;20205;-63
2022/01/21 02:28:00;;;;;;;6.60;3.20;;;;;;;;;;5092710;28;20180;-63
2022/01/21 02:30:26;;;;;;;6.75;2.75;;;;;;;;;;5093146;28;20521;-63
2022/01/21 02:32:56;;;;;;;3.47;2.33;;;;;;;;;;5092049;28;20653;-64
2022/01/21 02:35:23;;;;;;;4.40;2.15;;;;;;;;;;5093237;28;20182;-63
2022/01/21 02:37:49;;;;;;;7.70;2.92;;;;;;;;;;5093187;28;20180;-63
2022/01/21 02:40:16;;;;;;;4.97;2.40;;;;;;;;;;5093138;28;20239;-63
2022/01/21 02:42:42;;;;;;;6.13;3.22;;;;;;;;;;5093103;28;20254;-63
2022/01/21 02:45:09;;;;;;;4.30;2.60;;;;;;;;;;5093227;28;20220;-64
2022/01/21 02:47:35;;;;;;;8.82;4.97;;;;;;;;;;5093022;28;20255;-63
2022/01/21 02:50:01;;;;;;;6.75;2.50;;;;;;;;;;5093139;28;20496;-64
2022/01/21 02:52:30;;;;;;;4.22;2.50;;;;;;;;;;5092732;28;20208;-64
2022/01/21 02:54:56;;;;;;;6.55;2.30;;;;;;;;;;5093064;28;20167;-64
2022/01/21 02:57:23;;;;;;;12.55;2.65;;;;;;;;;;5093013;28;20174;-63
2022/01/21 02:59:50;;;;;;;8.00;2.72;;;;;;;;;;5090065;28;20168;-63
2022/01/21 03:02:16;;;;;;;4.25;2.70;;;;;;;;;;5072764;28;20180;-64
2022/01/21 03:05:00;;;;;;;7.43;2.33;;;;;;;;;;5072735;28;20166;-63
2022/01/21 03:07:27;;;;;;;5.03;2.45;;;;;;;;;;5072789;28;20496;-63
2022/01/21 03:09:53;;;;;;;5.33;2.30;;;;;;;;;;5072573;28;20718;-63
2022/01/21 03:12:21;;;;;;;3.70;1.77;;;;;;;;;;5072463;28;20552;-63
2022/01/21 03:14:47;;;;;;;8.57;2.88;;;;;;;;;;5072716;28;20402;-63
2022/01/21 03:17:13;;;;;;;7.25;2.80;;;;;;;;;;5072661;28;20170;-63
2022/01/21 03:19:39;;;;;;;4.00;2.70;;;;;;;;;;5072640;28;20171;-64
2022/01/21 03:22:05;;;;;;;7.57;2.30;;;;;;;;;;5054529;28;20767;-64
2022/01/21 03:24:32;;;;;;;7.63;2.40;;;;;;;;;;5072576;28;20405;-63
2022/01/21 03:26:58;;;;;;;4.18;2.85;;;;;;;;;;5072508;28;20184;-63
2022/01/21 03:29:24;;;;;;;6.13;2.50;;;;;;;;;;5072376;28;20166;-63
2022/01/21 03:31:50;;;;;;;6.07;2.77;;;;;;;;;;5072283;28;20461;-63
2022/01/21 03:34:16;;;;;;;6.32;2.85;;;;;;;;;;5072583;28;20885;-64
2022/01/21 03:36:42;;;;;;;5.72;2.75;;;;;;;;;;5072333;28;20681;-64
2022/01/21 03:39:09;;;;;;;8.30;2.97;;;;;;;;;;5073761;28;20169;-64
2022/01/21 03:41:35;;;;;;;5.35;2.72;;;;;;;;;;5075939;28;20174;-63
2022/01/21 03:44:01;;;;;;;10.20;3.23;;;;;;;;;;5075967;28;20168;-63
2022/01/21 03:46:27;;;;;;;4.45;2.60;;;;;;;;;;5075779;28;20427;-63
2022/01/21 03:48:53;;;;;;;10.68;2.85;;;;;;;;;;5075770;28;20167;-63
2022/01/21 03:51:20;;;;;;;8.63;3.07;;;;;;;;;;5075549;28;20691;-63
2022/01/21 03:53:46;;;;;;;7.22;2.53;;;;;;;;;;5075648;28;20407;-63
2022/01/21 03:56:13;;;;;;;5.25;2.55;;;;;;;;;;5075574;28;20179;-63
2022/01/21 03:58:39;;;;;;;6.53;2.95;;;;;;;;;;5075609;28;20159;-63
2022/01/21 04:01:05;;;;;;;5.32;2.75;;;;;;;;;;5075334;28;20220;-63
2022/01/21 04:03:31;;;;;;;2.97;2.30;;;;;;;;;;5075597;28;20558;-63
2022/01/21 04:05:57;;;;;;;5.67;3.30;;;;;;;;;;5075507;28;20190;-63
2022/01/21 04:08:23;;;;;;;5.68;2.90;;;;;;;;;;5075334;28;20426;-63
2022/01/21 04:10:50;;;;;;;7.75;2.50;;;;;;;;;;5075267;28;20198;-63
2022/01/21 04:13:18;;;;;;;3.20;2.75;;;;;;;;;;5075376;28;20236;-63
2022/01/21 04:15:50;;;;;;;5.45;2.45;;;;;;;;;;5075395;28;20163;-62
2022/01/21 04:18:16;;;;;;;8.18;3.33;;;;;;;;;;5057263;28;20258;-62
2022/01/21 04:20:43;;;;;;;8.23;3.10;;;;;;;;;;5057268;28;20171;-64
2022/01/21 04:23:10;;;;;;;3.85;2.35;;;;;;;;;;5075182;28;20241;-63
2022/01/21 04:25:36;;;;;;;14.95;3.83;;;;;;;;;;5075189;28;20171;-63
2022/01/21 04:28:02;;;;;;;9.88;3.22;;;;;;;;;;5075086;28;20630;-63
2022/01/21 04:30:28;;;;;;;6.35;3.03;;;;;;;;;;5074936;28;20176;-64
2022/01/21 04:32:54;;;;;;;6.95;2.90;;;;;;;;;;5074868;28;20171;-63
2022/01/21 04:35:20;;;;;;;7.60;3.30;;;;;;;;;;5074992;28;20175;-63
2022/01/21 04:37:55;;;;;;;5.43;3.42;;;;;;;;;;5057196;28;20262;-63
2022/01/21 04:40:23;;;;;;;6.38;2.58;;;;;;;;;;5074979;28;20189;-63
2022/01/21 04:48:19;;;;;;;6.50;3.15;;;;;;;;;;5075107;28;20189;-63
2022/01/21 04:50:57;;;;;;;4.75;3.17;;;;;;;;;;5056015;28;20249;-63
2022/01/21 04:53:24;;;;;;;5.25;2.72;;;;;;;;;;5074704;28;20174;-63
2022/01/21 04:55:50;;;;;;;4.10;2.80;;;;;;;;;;5074550;28;20183;-63
2022/01/21 04:58:16;;;;;;;8.10;3.20;;;;;;;;;;5074462;28;20178;-63
2022/01/21 05:00:43;;;;;;;7.38;3.15;;;;;;;;;;5074241;28;20222;-63
2022/01/21 05:03:10;;;;;;;7.78;2.63;;;;;;;;;;5074394;28;20169;-63
2022/01/21 05:05:37;;;;;;;4.22;3.00;;;;;;;;;;5074489;28;20170;-63
2022/01/21 05:08:06;;;;;;;11.13;4.07;;;;;;;;;;5074316;28;20282;-63
2022/01/21 05:10:33;;;;;;;10.77;3.70;;;;;;;;;;5074104;28;20171;-62
2022/01/21 05:13:00;;;;;;;6.30;2.95;;;;;;;;;;5074136;28;20180;-62
2022/01/21 05:15:41;;;;;;;5.65;2.83;;;;;;;;;;5074115;28;20280;-63
2022/01/21 05:18:07;;;;;;;9.23;4.22;;;;;;;;;;5074156;28;20174;-63
2022/01/21 05:20:33;;;;;;;8.17;3.53;;;;;;;;;;5056123;28;20506;-63
2022/01/21 05:22:59;;;;;;;9.27;3.22;;;;;;;;;;5073946;28;20414;-63
2022/01/21 05:25:25;;;;;;;5.93;3.10;;;;;;;;;;5073886;28;20661;-63
2022/01/21 05:27:54;;;;;;;9.45;3.78;;;;;;;;;;5074051;28;20409;-63
2022/01/21 05:30:20;;;;;;;6.13;3.17;;;;;;;;;;5073710;28;20194;-63
2022/01/21 05:32:46;;;;;;;8.10;3.40;;;;;;;;;;5073652;28;20253;-64
2022/01/21 05:35:13;;;;;;;8.27;3.75;;;;;;;;;;5073739;28;20171;-64
2022/01/21 05:37:39;;;;;;;4.72;2.63;;;;;;;;;;5073675;28;20171;-63
2022/01/21 05:40:07;;;;;;;3.42;3.03;;;;;;;;;;5073661;28;20186;-63
2022/01/21 05:42:35;;;;;;;9.95;3.50;;;;;;;;;;5073575;28;20561;-63
2022/01/21 05:47:28;;;;;;;11.82;4.90;;;;;;;;;;5073554;28;20171;-63
2022/01/21 05:49:54;;;;;;;8.00;3.30;;;;;;;;;;5073492;28;20249;-64
2022/01/21 05:52:21;;;;;;;6.53;3.30;;;;;;;;;;5073372;28;20205;-63
2022/01/21 05:54:47;;;;;;;6.53;3.40;;;;;;;;;;5073463;28;20195;-64
2022/01/21 05:57:17;;;;;;;6.53;3.92;;;;;;;;;;5073447;28;20179;-63
2022/01/21 05:59:43;;;;;;;8.05;3.50;;;;;;;;;;5073159;28;20257;-63
2022/01/21 06:02:11;;;;;;;9.65;3.55;;;;;;;;;;5072649;28;20234;-66
2022/01/21 06:04:38;;;;;;;8.10;3.63;;;;;;;;;;5055438;28;20233;-63
2022/01/21 06:07:07;;;;;;;7.15;3.30;;;;;;;;;;5073103;28;20240;-66
2022/01/21 06:09:33;;;;;;;7.78;3.25;;;;;;;;;;5073188;28;20219;-64
2022/01/21 06:11:59;;;;;;;15.85;4.07;;;;;;;;;;5073062;28;20218;-63
2022/01/21 06:14:25;;;;;;;5.45;3.33;;;;;;;;;;5055294;28;20182;-63
2022/01/21 06:16:52;;;;;;;7.13;3.80;;;;;;;;;;5073336;28;20181;-64
2022/01/21 06:19:18;;;;;;;9.93;4.07;;;;;;;;;;5073065;28;20176;-63
2022/01/21 06:21:44;;;;;;;8.65;3.50;;;;;;;;;;5073040;28;20175;-63
2022/01/21 06:24:10;;;;;;;11.07;4.13;;;;;;;;;;5073087;28;20283;-64
2022/01/21 06:26:37;;;;;;;10.07;4.55;;;;;;;;;;5073096;28;20432;-67
2022/01/21 06:29:03;;;;;;;5.65;3.17;;;;;;;;;;5073059;28;20266;-63
2022/01/21 06:31:29;;;;;;;6.30;3.30;;;;;;;;;;5072717;28;20302;-63
2022/01/21 06:33:55;;;;;;;6.13;2.78;;;;;;;;;;5073064;28;20170;-64
2022/01/21 06:36:22;;;;;;;10.40;4.00;;;;;;;;;;5072991;28;20522;-63
2022/01/21 06:38:48;;;;;;;5.18;3.47;;;;;;;;;;5072917;28;20415;-63
2022/01/21 06:41:14;;;;;;;7.93;3.00;;;;;;;;;;5072849;28;20171;-66
2022/01/21 06:43:40;;;;;;;9.77;4.13;;;;;;;;;;5072911;28;20413;-66
2022/01/21 06:46:07;;;;;;;6.43;3.85;;;;;;;;;;5072756;28;20179;-64
2022/01/21 06:48:33;;;;;;;6.95;4.30;;;;;;;;;;5072754;28;20180;-64
2022/01/21 06:50:59;;;;;;;11.75;4.75;;;;;;;;;;5072573;28;20565;-64
2022/01/21 06:53:25;;;;;;;5.73;3.77;;;;;;;;;;5072814;28;20748;-64
2022/01/21 06:55:51;;;;;;;6.82;3.72;;;;;;;;;;5072623;28;20508;-63
2022/01/21 06:58:17;;;;;;;10.23;4.07;;;;;;;;;;5072779;28;20259;-64
2022/01/21 07:00:43;;;;;;;11.03;4.00;;;;;;;;;;5071395;28;20982;-63
2022/01/21 07:03:09;;;;;;;7.95;4.20;;;;;;;;;;5092949;28;20404;-64
2022/01/21 07:05:35;;;;;;;8.37;4.43;;;;;;;;;;5092880;28;20171;-66
2022/01/21 07:08:02;;;;;;;12.80;4.50;;;;;;;;;;5092885;28;20402;-63
2022/01/21 07:10:29;;;;;;;8.20;4.32;;;;;;;;;;5091585;28;20446;-63
2022/01/21 07:12:56;;;;;;;10.57;4.75;;;;;;;;;;5093856;28;20180;-64
2022/01/21 07:15:22;;;;;;;5.20;4.10;;;;;;;;;;5096680;28;20235;-64
2022/01/21 07:17:52;;;;;;;6.75;4.18;;;;;;;;;;5095365;28;20191;-64
2022/01/21 07:20:18;;;;;;;11.13;4.40;;;;;;;;;;5096423;28;20175;-66
2022/01/21 07:22:44;;;;;;;13.27;4.50;;;;;;;;;;5096560;28;20205;-64
2022/01/21 07:25:10;;;;;;;12.40;4.73;;;;;;;;;;5096527;28;20203;-64
2022/01/21 07:27:36;;;;;;;9.63;4.90;;;;;;;;;;5096438;28;20451;-64
2022/01/21 07:30:03;;;;;;;7.90;4.35;;;;;;;;;;5096203;28;20185;-64
2022/01/21 07:32:29;;;;;;;8.13;3.80;;;;;;;;;;5096082;28;20237;-64
2022/01/21 07:34:55;;;;;;;9.37;4.87;;;;;;;;;;5096329;28;20714;-63
2022/01/21 07:37:21;;;;;;;18.75;4.53;;;;;;;;;;5096304;28;20400;-64
2022/01/21 07:39:47;;;;;;;8.90;4.93;;;;;;;;;;5096239;28;20258;-63
2022/01/21 07:42:13;;;;;;;10.85;4.38;;;;;;;;;;5096084;28;20431;-64
2022/01/21 07:44:39;;;;;;;9.60;5.53;;;;;;;;;;5096220;28;20201;-64
2022/01/21 07:47:06;;;;;;;10.60;4.80;;;;;;;;;;5096037;28;20205;-64
2022/01/21 07:49:32;;;;;;;8.95;4.90;;;;;;;;;;5095949;28;20760;-64
2022/01/21 07:51:58;;;;;;;10.90;5.10;;;;;;;;;;5095837;28;20275;-64
2022/01/21 07:54:24;;;;;;;12.83;4.60;;;;;;;;;;5095970;28;20564;-63
2022/01/21 07:56:50;;;;;;;5.03;3.85;;;;;;;;;;5095811;28;20964;-64
2022/01/21 07:59:16;;;;;;;21.15;5.05;;;;;;;;;;5095739;28;20188;-67
2022/01/21 08:01:43;;;;;;;7.75;5.20;;;;;;;;;;5077221;28;20229;-68
2022/01/21 08:04:09;;;;;;;9.93;5.55;;;;;;;;;;5057416;28;20179;-64
2022/01/21 08:06:35;;;;;;;8.90;4.60;;;;;;;;;;5057416;28;20732;-63
2022/01/21 08:09:01;;;;;;;7.95;4.95;;;;;;;;;;5057663;28;20170;-64
2022/01/21 08:11:28;;;;;;;12.30;5.25;;;;;;;;;;5057270;28;20214;-66
2022/01/21 08:13:54;;;;;;;10.15;4.70;;;;;;;;;;5075425;28;20301;-64
2022/01/21 08:16:20;;;;;;;9.65;5.15;;;;;;;;;;5075258;28;20177;-64
2022/01/21 08:18:46;;;;;;;13.82;4.82;;;;;;;;;;5075213;28;20175;-63
2022/01/21 08:21:18;;;;;;;11.00;4.50;;;;;;;;;;5075226;28;20199;-66
2022/01/21 08:23:48;;;;;;;9.63;4.70;;;;;;;;;;5075178;28;20168;-64
2022/01/21 08:26:15;;;;;;;6.85;4.13;;;;;;;;;;5074635;28;20259;-66
2022/01/21 08:28:41;;;;;;;7.20;4.72;;;;;;;;;;5057049;28;20216;-64
2022/01/21 08:31:07;;;;;;;7.60;4.13;;;;;;;;;;5074729;28;20213;-75
2022/01/21 08:33:33;;;;;;;7.35;4.78;;;;;;;;;;5074996;28;20211;-68
2022/01/21 08:35:59;;;;;;;8.13;5.20;;;;;;;;;;5075050;28;20204;-74
2022/01/21 08:38:25;;;;;;;9.20;4.57;;;;;;;;;;5074839;28;20425;-68
2022/01/21 08:40:51;;;;;;;10.10;5.97;;;;;;;;;;5074641;28;20406;-66
2022/01/21 08:43:17;;;;;;;9.43;4.60;;;;;;;;;;5056823;28;20537;-68
2022/01/21 08:45:43;;;;;;;7.77;4.90;;;;;;;;;;5074605;28;20418;-65
2022/01/21 08:48:10;;;;;;;9.40;5.00;;;;;;;;;;5074666;28;20417;-65
2022/01/21 08:50:36;;;;;;;11.68;4.78;;;;;;;;;;5056505;28;20638;-66
2022/01/21 08:53:36;;;;;;;13.10;5.33;;;;;;;;;;5074699;28;20200;-68
2022/01/21 08:55:55;;;;;;;9.70;6.00;;;;;;;;;;5074231;28;20419;-64
2022/01/21 08:58:21;;;;;;;9.25;4.00;;;;;;;;;;5056542;28;20213;-66
2022/01/21 09:00:47;;;;;;;12.07;5.00;;;;;;;;;;5074144;28;20227;-65
2022/01/21 09:03:13;;;;;;;8.27;5.20;;;;;;;;;;5074379;28;20409;-64
2022/01/21 09:05:39;;;;;;;14.03;5.70;;;;;;;;;;5074251;28;20489;-66
2022/01/21 09:08:05;;;;;;;16.13;6.40;;;;;;;;;;5056250;28;20448;-64
2022/01/21 09:10:31;;;;;;;13.55;5.78;;;;;;;;;;5074069;28;20580;-64
2022/01/21 09:12:57;;;;;;;9.30;5.50;;;;;;;;;;5074043;28;20180;-65
2022/01/21 09:15:25;;;;;;;15.17;4.50;;;;;;;;;;5056175;28;20932;-64
2022/01/21 09:17:52;;;;;;;15.95;5.57;;;;;;;;;;5074124;28;20769;-70
2022/01/21 09:20:18;;;;;;;13.15;5.78;;;;;;;;;;5073999;28;20199;-71
2022/01/21 09:22:44;;;;;;;13.32;5.50;;;;;;;;;;5056091;28;20185;-66
2022/01/21 09:25:10;;;;;;;10.35;5.20;;;;;;;;;;5073914;28;20185;-67
2022/01/21 09:27:36;;;;;;;13.40;5.97;;;;;;;;;;5073893;28;20529;-68
2022/01/21 09:30:05;;;;;;;14.23;5.90;;;;;;;;;;5073906;28;20559;-64
2022/01/21 09:32:32;;;;;;;13.70;6.40;;;;;;;;;;5073650;28;20469;-70
2022/01/21 09:34:58;;;;;;;7.53;4.80;;;;;;;;;;5055887;28;20179;-65
2022/01/21 09:37:24;;;;;;;10.57;4.77;;;;;;;;;;5073620;28;21418;-65
2022/01/21 09:39:50;;;;;;;17.43;6.33;;;;;;;;;;5055640;28;20411;-68
2022/01/21 09:42:17;;;;;;;8.67;5.43;;;;;;;;;;5073681;28;20409;-67
2022/01/21 09:44:45;;;;;;;12.37;5.67;;;;;;;;;;5073534;28;20501;-64
2022/01/21 09:47:14;;;;;;;14.90;5.43;;;;;;;;;;5073633;28;20932;-65
2022/01/21 09:49:41;;;;;;;8.87;4.80;;;;;;;;;;5073431;28;20382;-66
2022/01/21 09:52:08;;;;;;;17.30;5.17;;;;;;;;;;5055339;28;20498;-66
2022/01/21 09:54:36;;;;;;;11.33;4.57;;;;;;;;;;5073429;28;20907;-63
2022/01/21 09:57:03;;;;;;;9.17;5.30;;;;;;;;;;5073440;28;20487;-64
2022/01/21 09:59:31;;;;;;;13.47;4.50;;;;;;;;;;5073327;28;20401;-65
2022/01/21 10:01:58;;;;;;;12.30;5.27;;;;;;;;;;5073319;28;20428;-69
2022/01/21 10:04:29;;;;;;;8.87;4.33;;;;;;;;;;5073207;28;20409;-65
2022/01/21 10:06:56;;;;;;;6.23;4.13;;;;;;;;;;5073307;28;20504;-64
2022/01/21 10:09:23;;;;;;;14.87;4.83;;;;;;;;;;5073210;28;20414;-66
2022/01/21 10:11:50;;;;;;;9.17;4.67;;;;;;;;;;5073058;28;20556;-66
2022/01/21 10:14:20;;;;;;;9.33;4.57;;;;;;;;;;5073143;28;20828;-66
2022/01/21 10:16:48;;;;;;;7.20;4.90;;;;;;;;;;5073286;28;20394;-66
2022/01/21 10:19:21;;;;;;;9.27;4.97;;;;;;;;;;5055079;28;20441;-66
2022/01/21 10:21:48;;;;;;;9.20;5.00;;;;;;;;;;5073217;28;20391;-66
2022/01/21 10:24:15;;;;;;;12.27;5.00;;;;;;;;;;5073026;28;20420;-71
2022/01/21 10:26:48;;;;;;;6.57;4.90;;;;;;;;;;5073077;28;20430;-65
2022/01/21 10:29:14;;;;;;;8.93;4.57;;;;;;;;;;5073022;28;20431;-66
2022/01/21 10:31:54;;;;;;;16.17;5.53;;;;;;;;;;5072930;28;20457;-64
2022/01/21 10:34:25;;;;;;;10.73;5.53;;;;;;;;;;5073130;28;20405;-65
2022/01/21 10:36:56;;;;;;;4.93;4.20;;;;;;;;;;5073116;28;20407;-69
2022/01/21 10:39:31;;;;;;;9.87;5.10;;;;;;;;;;5072961;28;20437;-68
2022/01/21 10:41:57;;;;;;;9.38;5.63;;;;;;;;;;5072997;28;20408;-66
2022/01/21 10:44:29;;;;;;;10.07;5.13;;;;;;;;;;5072802;28;20169;-66
2022/01/21 10:47:07;;;;;;;13.00;5.33;;;;;;;;;;5072837;28;20407;-67
2022/01/21 10:49:34;;;;;;;10.60;4.90;;;;;;;;;;5078481;28;20411;-67
2022/01/21 10:52:00;;;;;;;6.50;3.93;;;;;;;;;;5058683;28;20933;-65
2022/01/21 10:54:28;;;;;;;16.80;4.53;;;;;;;;;;5076878;28;20482;-68
2022/01/21 10:57:14;;;;;;;10.40;4.47;;;;;;;;;;5076786;28;20448;-66
2022/01/21 10:59:52;;;;;;;10.30;4.43;;;;;;;;;;5076434;28;20395;-71
2022/01/21 11:02:39;;;;;;;14.67;4.90;;;;;;;;;;5076744;28;20408;-69
2022/01/21 11:05:09;;;;;;;6.00;3.90;;;;;;;;;;5076840;28;20520;-71
2022/01/21 11:07:58;;;;;;;6.80;4.20;;;;;;;;;;5076685;28;20566;-66
2022/01/21 11:10:35;;;;;;;10.67;4.63;;;;;;;;;;5076563;28;20915;-68
2022/01/21 11:13:22;;;;;;;13.90;4.50;;;;;;;;;;5076468;28;20775;-70
2022/01/21 11:15:50;;;;;;;8.47;3.73;;;;;;;;;;5059617;28;20448;-75
2022/01/21 11:18:19;;;;;;;7.63;3.90;;;;;;;;;;5076404;28;20813;-67
2022/01/21 11:20:49;;;;;;;8.17;4.47;;;;;;;;;;5076425;28;20436;-71
2022/01/21 11:23:16;;;;;;;6.57;4.20;;;;;;;;;;5076263;28;20408;-65
2022/01/21 11:25:42;;;;;;;6.00;4.00;;;;;;;;;;5076149;28;20176;-68
2022/01/21 11:28:08;;;;;;;10.13;4.27;;;;;;;;;;5058292;28;20748;-68
2022/01/21 11:30:35;;;;;;;10.10;4.13;;;;;;;;;;5076068;28;20482;-68
2022/01/21 11:33:01;;;;;;;10.50;4.13;;;;;;;;;;5076075;28;20417;-70
2022/01/21 11:35:28;;;;;;;4.50;2.83;;;;;;;;;;5058030;28;20420;-65
2022/01/21 11:37:54;;;;;;;10.60;4.60;;;;;;;;;;5076082;28;20409;-65
2022/01/21 11:40:21;;;;;;;8.03;3.40;;;;;;;;;;5075719;28;20930;-65
2022/01/21 11:42:48;;;;;;;6.43;3.37;;;;;;;;;;5075757;28;20447;-66
2022/01/21 11:45:32;;;;;;;6.83;3.57;;;;;;;;;;5057770;28;20763;-65
2022/01/21 11:50:45;;;;;;;7.77;3.53;;;;;;;;;;5075549;28;20924;-67
2022/01/21 11:53:11;;;;;;;5.17;3.27;;;;;;;;;;5075723;28;20438;-69
2022/01/21 11:55:45;;;;;;;5.97;2.90;;;;;;;;;;5075627;28;20942;-71
2022/01/21 11:58:24;;;;;;;3.93;3.27;;;;;;;;;;5075670;28;20514;-66
2022/01/21 12:00:52;;;;;;;7.20;4.13;;;;;;;;;;5076135;28;20465;-71
2022/01/21 12:03:23;;;;;;;8.43;3.53;;;;;;;;;;5075642;28;20409;-66
2022/01/21 12:05:49;;;;;;;9.60;3.50;;;;;;;;;;5075563;28;20792;-66
2022/01/21 12:08:16;;;;;;;7.73;3.20;;;;;;;;;;5075344;28;20938;-66
2022/01/21 12:10:43;;;;;;;5.73;2.67;;;;;;;;;;5075173;28;20406;-65
2022/01/21 12:13:21;;;;;;;9.90;4.23;;;;;;;;;;5075287;28;20422;-65
2022/01/21 12:19:05;;;;;;;11.43;4.60;;;;;;;;;;5075369;28;20406;-66
2022/01/21 12:21:29;;;;;;;5.33;2.60;;;;;;;;;;5074610;28;20417;-66
2022/01/21 12:23:55;;;;;;;7.50;3.50;;;;;;;;;;5075210;28;20422;-64
2022/01/21 12:26:23;;;;;;;10.43;2.80;;;;;;;;;;5057117;28;20418;-69
2022/01/21 12:28:53;;;;;;;5.40;3.67;;;;;;;;;;5074898;28;20414;-65
2022/01/21 12:31:20;;;;;;;5.40;3.33;;;;;;;;;;5074734;28;20476;-65
2022/01/21 12:34:00;;;;;;;5.33;2.63;;;;;;;;;;5074940;28;20416;-65
2022/01/21 12:36:29;;;;;;;8.03;2.80;;;;;;;;;;5075018;28;20410;-67
2022/01/21 12:41:24;;;;;;;7.37;3.27;;;;;;;;;;5074840;28;20911;-65
2022/01/21 12:43:56;;;;;;;10.83;2.90;;;;;;;;;;5074705;28;20428;-64
2022/01/21 12:46:36;;;;;;;6.57;2.97;;;;;;;;;;5075185;28;20538;-70
2022/01/21 12:49:22;;;;;;;3.60;2.50;;;;;;;;;;5074695;28;20418;-70
2022/01/21 12:52:09;;;;;;;5.90;2.87;;;;;;;;;;5074269;28;20832;-70
2022/01/21 12:57:41;;;;;;;7.43;3.70;;;;;;;;;;5074845;28;20454;-70
2022/01/21 13:00:08;;;;;;;6.23;2.30;;;;;;;;;;5074150;28;20458;-71
2022/01/21 13:02:34;;;;;;;16.23;3.43;;;;;;;;;;5074445;28;20401;-73
2022/01/21 13:05:03;;;;;;;10.60;3.43;;;;;;;;;;5074367;28;20414;-65
2022/01/21 13:07:35;;;;;;;13.50;3.20;;;;;;;;;;5074398;28;20410;-67
2022/01/21 13:10:14;;;;;;;7.77;2.87;;;;;;;;;;5073919;28;20417;-68
2022/01/21 13:13:01;;;;;;;4.87;2.50;;;;;;;;;;5056086;28;20469;-65
2022/01/21 13:15:42;;;;;;;6.43;2.50;;;;;;;;;;5074211;28;20800;-66
2022/01/21 13:18:10;;;;;;;11.33;2.60;;;;;;;;;;5074028;28;20250;-65
2022/01/21 13:20:37;;;;;;;8.10;3.10;;;;;;;;;;5074080;28;20407;-65
2022/01/21 13:23:03;;;;;;;6.77;2.83;;;;;;;;;;5073846;28;20427;-66
2022/01/21 13:25:31;;;;;;;4.30;2.10;;;;;;;;;;5073907;28;20941;-69
2022/01/21 13:27:59;;;;;;;3.70;2.00;;;;;;;;;;5073884;28;20410;-68
2022/01/21 13:30:27;;;;;;;8.83;2.77;;;;;;;;;;5073864;28;20405;-67
2022/01/21 13:33:01;;;;;;;6.27;2.33;;;;;;;;;;5073737;28;20466;-65
2022/01/21 13:35:28;;;;;;;4.00;2.10;;;;;;;;;;5073677;28;20491;-64
2022/01/21 13:38:03;;;;;;;6.60;2.40;;;;;;;;;;5073752;28;20459;-66
2022/01/21 13:40:32;;;;;;;5.00;2.90;;;;;;;;;;5074059;28;20406;-63
2022/01/21 13:43:05;;;;;;;10.60;3.00;;;;;;;;;;5073932;28;20398;-66
2022/01/21 13:45:31;;;;;;;6.77;3.07;;;;;;;;;;5073562;28;20420;-68
2022/01/21 13:48:02;;;;;;;5.30;2.30;;;;;;;;;;5073631;28;20414;-69
2022/01/21 13:50:30;;;;;;;11.90;4.13;;;;;;;;;;5073566;28;20410;-64
2022/01/21 13:52:59;;;;;;;5.13;2.60;;;;;;;;;;5073343;28;20827;-66
2022/01/21 13:55:28;;;;;;;3.87;2.40;;;;;;;;;;5073347;28;20444;-65
2022/01/21 13:57:55;;;;;;;8.03;2.77;;;;;;;;;;5055730;28;20775;-65
2022/01/21 14:00:47;;;;;;;5.07;2.87;;;;;;;;;;5073104;28;20956;-67
2022/01/21 14:03:18;;;;;;;8.47;2.37;;;;;;;;;;5068883;28;20418;-73
2022/01/21 14:05:49;;;;;;;9.67;2.20;;;;;;;;;;5073293;28;20405;-74
2022/01/21 14:08:22;;;;;;;5.57;2.60;;;;;;;;;;5073321;28;20402;-68
2022/01/21 14:10:48;;;;;;;6.27;2.40;;;;;;;;;;5072948;28;20405;-65
2022/01/21 14:13:14;;;;;;;10.97;2.90;;;;;;;;;;5073304;28;20428;-71
2022/01/21 14:15:40;;;;;;;5.73;2.37;;;;;;;;;;5073157;28;20398;-75
2022/01/21 14:18:06;;;;;;;6.53;1.93;;;;;;;;;;5073132;28;20437;-70
2022/01/21 14:20:35;;;;;;;7.77;2.50;;;;;;;;;;5073114;28;20401;-70
2022/01/21 14:23:01;;;;;;;5.83;2.13;;;;;;;;;;5072458;28;20906;-72
2022/01/21 14:25:28;;;;;;;9.50;3.60;;;;;;;;;;5073202;28;20493;-73
2022/01/21 14:27:54;;;;;;;4.60;2.00;;;;;;;;;;5073131;28;20426;-71
2022/01/21 14:30:21;;;;;;;8.37;2.07;;;;;;;;;;5073019;28;20409;-68
2022/01/21 14:32:54;;;;;;;5.27;2.70;;;;;;;;;;5073892;28;20522;-68
2022/01/21 14:35:25;;;;;;;5.07;2.70;;;;;;;;;;5075543;28;20429;-75
2022/01/21 14:37:53;;;;;;;2.90;2.00;;;;;;;;;;5054950;28;20778;-75
2022/01/21 14:40:23;;;;;;;7.07;2.50;;;;;;;;;;5073019;28;20415;-74
2022/01/21 14:42:49;;;;;;;3.37;2.30;;;;;;;;;;5072943;28;20399;-73
2022/01/21 14:45:17;;;;;;;2.90;2.20;;;;;;;;;;5072954;28;20421;-74
2022/01/21 14:47:44;;;;;;;5.27;2.53;;;;;;;;;;5072888;28;20406;-72
2022/01/21 14:50:14;;;;;;;6.40;2.40;;;;;;;;;;5072820;28;20449;-68
2022/01/21 14:52:42;;;;;;;8.37;2.60;;;;;;;;;;5072504;28;21065;-73
2022/01/21 14:55:12;;;;;;;5.93;2.83;;;;;;;;;;5072710;28;20414;-73
2022/01/21 14:57:38;;;;;;;2.63;2.37;;;;;;;;;;5072863;28;20412;-75
2022/01/21 15:00:06;;;;;;;7.30;2.70;;;;;;;;;;5072399;28;20417;-70
2022/01/21 15:02:39;;;;;;;13.00;3.27;;;;;;;;;;5054882;28;20499;-75
2022/01/21 15:05:11;;;;;;;5.87;2.33;;;;;;;;;;5072683;28;20417;-74
2022/01/21 15:07:37;;;;;;;5.60;2.50;;;;;;;;;;5072733;28;20488;-73
2022/01/21 15:10:20;;;;;;;13.17;3.10;;;;;;;;;;5072396;28;20750;-70
2022/01/21 15:15:32;;;;;;;6.93;2.70;;;;;;;;;;5072809;28;20954;-73
2022/01/21 15:17:59;;;;;;;6.70;2.53;;;;;;;;;;5072608;28;20758;-67
2022/01/21 15:20:31;;;;;;;5.03;2.73;;;;;;;;;;5072688;28;20397;-70
2022/01/21 15:22:58;;;;;;;5.50;2.30;;;;;;;;;;5072488;28;20406;-66
2022/01/21 15:25:24;;;;;;;4.40;2.27;;;;;;;;;;5072471;28;20416;-68
2022/01/21 15:27:50;;;;;;;8.77;2.90;;;;;;;;;;5072552;28;20405;-72
2022/01/21 15:30:17;;;;;;;5.27;2.80;;;;;;;;;;5072383;28;20394;-67
2022/01/21 15:32:43;;;;;;;6.53;2.57;;;;;;;;;;5054367;28;20465;-74
2022/01/21 15:35:09;;;;;;;5.03;2.80;;;;;;;;;;5075296;28;21016;-77
2022/01/21 15:37:35;;;;;;;3.83;1.80;;;;;;;;;;5076044;28;20432;-74
2022/01/21 15:40:01;;;;;;;5.60;2.10;;;;;;;;;;5076040;28;20887;-68
2022/01/21 15:42:27;;;;;;;3.10;2.20;;;;;;;;;;5075925;28;20769;-73
2022/01/21 15:44:56;;;;;;;2.37;1.83;;;;;;;;;;5075957;28;20955;-71
2022/01/21 15:47:22;;;;;;;10.60;2.70;;;;;;;;;;5075865;28;20446;-75
2022/01/21 15:49:48;;;;;;;8.00;2.70;;;;;;;;;;5058009;28;20466;-75